FTTD

Moundou Airport

Chad
METAR FTTD 191500Z 30006KT 8000 -TSRA SCT030 FEW050CB 22/21 Q1012 Q1012 RETSRA
Observed Flight Rules
Jun-19 @ 15:00 UTC (5 hours ago) Marginal Visual Flight Rules
Wind Visibility Clouds Conditions
300° at 6 knots 7,998 meters
  • Scattered at 3,000' AGL
  • Few at 5,000' AGL
  • Light Thunderstorm
  • Light Rain
Temperatures Readings
Current 22°C / 72°F
Dewpoint 21°C / 70°F
Humidity 94%
Altimeter 29.88" Hg
Pressure 1012 hPa
Elevation 422
METAR FTTD 191500Z 30006KT 8000 -TSRA SCT030 FEW050CB 22/21 Q1012 Q1012 RETSRA
Observed Flight Rules
Jun-19 @ 15:00 UTC
(5 hours ago)
MVFR
Wind Visibility
300° at 6 knots 7,998 meters
Clouds
  • Scattered at 3,000' AGL
  • Few at 5,000' AGL
Conditions
  • Light Thunderstorm
  • Light Rain
Temperature Dewpoint
22°C / 72°F 21°C / 70°F
Humidity Altimeter Pressure
94% 29.88" Hg 1012 hPa